Georgetown, Alabama
Current Conditions -  °F | °C
As of 12:56 PM on Thursday 23 Oct 2014 (Local Time) from KMOB Reporting Station
Clear Clear  
Wind Chill: 71°   Ceiling: Unl
Heat Index: 71°   Visibility: 10mi
Dew Point: 45°   Wind: 3mph
Humidity: 39%   Direction: NA
Pressure: 30.1"   Gusts: NA
Location:  30.9846°N, 88.1229°W
Report Text: KMOB 231756Z VRB03KT 10SM CLR 22/07 A3010 RMK AO2 SLP190 T02170072 10217 20083 58014
Loading
Personal Weather Stations






























Interactive Weather Map
Tropical Storm Tracking
New forecast layout! Learn more

10-Day Weather Forecast

Advertisements
Track Severe Weather on mobile